Flint, MI (48557)

4:53 AM EST on February 12, 2016 (GMT -0500)
Dave Grand Blanc | | Change Station
CLOSE
Current Station
Personal Weather Station
Location: Grand Blanc, MI
Elevation: 797 ft
Nearby Weather Stations

Elev 797 ft 42.95 °N, 83.67 °W | Updated 7 seconds ago

Overcast
Overcast
14.0 °F
Feels Like 14 °F
N
1.3
Wind Variable Wind from SSW
Gusts 4.5 mph

Today
High -- | Low -- °F
--% Chance of Precip.
Yesterday
High -- | Low -- °F
Precip. -- in
Pressure 30.15 in
Visibility 10.0 miles
Clouds Overcast 8500 ft
Windchill 14 °F
Dew Point 9 °F
Humidity 79%
Rainfall 0.00 in
Snow Depth Not available.
7:36 AM 6:01 PM
Waxing Crescent, 19% visible
METAR KFNT 120853Z AUTO 22008KT 10SM OVC085 M11/M15 A3010 RMK AO2 SLP209 T11061150 58026 TSNO
Pressure 30.15 in
Visibility 10.0 miles
Clouds Overcast 8500 ft
Windchill 14 °F
Dew Point 9 °F
Humidity 79%
Rainfall 0.00 in
Snow Depth Not available.
7:36 AM 6:01 PM
Waxing Crescent, 19% visible
METAR KFNT 120853Z AUTO 22008KT 10SM OVC085 M11/M15 A3010 RMK AO2 SLP209 T11061150 58026 TSNO

10-Day Weather Forecast

Almanac

Astronomy

Feb. 12, 2016 Rise Set
Actual Time
Civil Twilight
Nautical Twilight
Astronomical Twilight
Moon
Length of Visible Light
Length of Day
Tomorrow will be .
, % of the Moon is Illuminated

Today's Extremes

State Highs State Lows

Community

WunderPhotos

Upload Photos

1,892,286 photos uploaded!

WunderBlog® & News

Nearby

Air Quality

  Air Quality AQ Index Pollutant
Not available.

Snow Depth

Station Depth Elevation

Earthquake Activity

City Distance Mag. Time & Date
Minimum magnitude displayed is 2.5.

Coastal Water Temperatures

Place Temperature

Stations

Nearby Weather Stations

Station Location Temp. Windchill Dew Point Humidity Wind Precip. Elev Updated Type
                   

Watches & Warnings

There are currently no watches in effect.